createdAt,value
2022-11-08T00:00:43.101Z,71.79
2022-11-08T00:03:11.569Z,72.08
2022-11-08T00:05:57.494Z,72.03
2022-11-08T00:08:43.238Z,72.00
2022-11-08T00:11:29.164Z,72.17
2022-11-08T00:14:00.478Z,72.03
2022-11-08T00:16:30.500Z,72.08
2022-11-08T00:18:58.866Z,72.42
2022-11-08T00:21:27.428Z,72.27
2022-11-08T00:23:55.827Z,72.50
2022-11-08T00:26:24.201Z,72.42
2022-11-08T00:28:52.508Z,72.34
2022-11-08T00:31:20.902Z,72.73
2022-11-08T00:33:50.639Z,72.91
2022-11-08T00:36:19.011Z,72.85
2022-11-08T00:38:47.395Z,72.58
2022-11-08T00:41:16.071Z,72.91
2022-11-08T00:43:44.579Z,72.58
2022-11-08T00:46:12.933Z,72.79
2022-11-08T00:48:41.256Z,73.07
2022-11-08T00:51:13.205Z,72.98
2022-11-08T00:53:41.638Z,72.85
2022-11-08T00:56:13.165Z,72.96
2022-11-08T00:58:43.786Z,73.03
2022-11-08T01:01:13.461Z,72.78
2022-11-08T01:03:41.797Z,73.02
2022-11-08T01:06:13.706Z,73.25
2022-11-08T01:08:42.742Z,72.86
2022-11-08T01:11:14.606Z,72.43
2022-11-08T01:13:43.432Z,72.90
2022-11-08T01:16:14.650Z,72.67
2022-11-08T01:18:43.474Z,72.80
2022-11-08T01:21:13.991Z,72.50
2022-11-08T01:23:42.645Z,72.89
2022-11-08T01:26:14.637Z,72.95
2022-11-08T01:28:43.246Z,72.79
2022-11-08T01:31:13.822Z,72.74
2022-11-08T01:33:46.977Z,73.13
2022-11-08T01:36:22.246Z,73.02
2022-11-08T01:38:51.720Z,72.95
2022-11-08T01:41:21.219Z,73.13
2022-11-08T01:43:50.424Z,73.21
2022-11-08T01:46:42.615Z,73.24
2022-11-08T01:49:23.710Z,73.19
2022-11-08T01:52:00.637Z,73.34
2022-11-08T01:54:33.549Z,72.96
2022-11-08T01:57:05.170Z,73.07
2022-11-08T01:59:35.357Z,73.43
2022-11-08T02:02:03.994Z,73.14
2022-11-08T02:04:33.236Z,73.39
2022-11-08T02:07:04.061Z,73.43
2022-11-08T02:09:34.032Z,73.50
2022-11-08T02:12:03.087Z,73.39
2022-11-08T02:14:32.138Z,73.21
2022-11-08T02:17:00.651Z,73.52
2022-11-08T02:19:39.395Z,73.47
2022-11-08T02:22:17.326Z,73.54
2022-11-08T02:24:47.313Z,73.29
2022-11-08T02:27:16.279Z,73.41
2022-11-08T02:29:44.655Z,73.42
2022-11-08T02:32:13.789Z,73.45
2022-11-08T02:34:46.509Z,73.35
2022-11-08T02:37:17.567Z,73.51
2022-11-08T02:39:47.926Z,73.43
2022-11-08T02:42:18.564Z,73.19
2022-11-08T02:44:47.298Z,73.65
2022-11-08T02:47:16.261Z,73.46
2022-11-08T02:49:44.669Z,73.40
2022-11-08T02:52:13.103Z,73.64
2022-11-08T02:54:41.442Z,73.76
2022-11-08T02:57:11.197Z,73.73
2022-11-08T02:59:39.688Z,73.50
2022-11-08T03:02:08.501Z,73.50
2022-11-08T03:04:36.916Z,73.54
2022-11-08T03:07:05.332Z,73.75
2022-11-08T03:09:33.669Z,73.53
2022-11-08T03:12:01.986Z,73.62
2022-11-08T03:14:31.672Z,73.76
2022-11-08T03:17:00.107Z,73.83
2022-11-08T03:19:28.444Z,73.67
2022-11-08T03:21:56.876Z,73.77
2022-11-08T03:24:25.217Z,73.76
2022-11-08T03:26:53.660Z,73.74
2022-11-08T03:29:22.062Z,73.71
2022-11-08T03:31:51.932Z,73.70
2022-11-08T03:34:20.268Z,73.74
2022-11-08T03:36:48.707Z,73.74
2022-11-08T03:39:16.993Z,73.85
2022-11-08T03:41:45.818Z,73.75
2022-11-08T03:44:14.149Z,73.74
2022-11-08T03:46:42.476Z,73.63
2022-11-08T03:49:12.438Z,73.84
2022-11-08T03:51:40.756Z,73.80
2022-11-08T03:54:09.139Z,73.90
2022-11-08T03:56:37.473Z,74.05
2022-11-08T03:59:05.929Z,74.13
2022-11-08T04:01:34.580Z,73.83
2022-11-08T04:04:03.018Z,73.98
2022-11-08T04:06:32.717Z,73.71
2022-11-08T04:09:01.168Z,73.90
2022-11-08T04:11:47.102Z,73.78
2022-11-08T04:14:33.168Z,73.85
2022-11-08T04:17:01.536Z,73.82
2022-11-08T04:19:55.833Z,73.78
2022-11-08T04:22:25.728Z,73.65
2022-11-08T04:24:54.085Z,73.61
2022-11-08T04:27:22.448Z,73.66
2022-11-08T04:29:50.808Z,73.78
2022-11-08T04:32:19.171Z,73.67
2022-11-08T04:34:47.487Z,73.51
2022-11-08T04:37:15.879Z,73.66
2022-11-08T04:39:45.644Z,73.87
2022-11-08T04:42:13.980Z,73.77
2022-11-08T04:44:42.345Z,73.80
2022-11-08T04:47:11.173Z,73.79
2022-11-08T04:49:39.488Z,73.78
2022-11-08T04:52:08.969Z,73.68
2022-11-08T04:54:37.709Z,73.85
2022-11-08T04:57:07.474Z,73.63
2022-11-08T04:59:35.815Z,73.53
2022-11-08T05:02:04.435Z,73.68
2022-11-08T05:04:32.901Z,73.53
2022-11-08T05:07:01.287Z,73.56
2022-11-08T05:09:29.645Z,73.56
2022-11-08T05:11:57.980Z,73.60
2022-11-08T05:14:27.667Z,73.72
2022-11-08T05:16:56.041Z,73.48
2022-11-08T05:19:38.334Z,73.77
2022-11-08T05:22:20.568Z,73.51
2022-11-08T05:24:48.945Z,73.69
2022-11-08T05:27:17.325Z,73.74
2022-11-08T05:29:47.119Z,73.70
2022-11-08T05:32:15.436Z,73.66
2022-11-08T05:34:44.041Z,73.65
2022-11-08T05:37:12.398Z,73.84
2022-11-08T05:39:40.707Z,73.84
2022-11-08T05:42:08.992Z,73.74
2022-11-08T05:44:37.364Z,73.61
2022-11-08T05:47:07.185Z,73.62
2022-11-08T05:49:35.565Z,73.52
2022-11-08T05:52:04.616Z,73.59
2022-11-08T05:54:32.973Z,73.62
2022-11-08T05:57:01.309Z,73.49
2022-11-08T05:59:29.727Z,73.71
2022-11-08T06:01:58.107Z,73.69
2022-11-08T06:04:27.824Z,73.53
2022-11-08T06:06:56.201Z,73.60
2022-11-08T06:09:24.697Z,73.39
2022-11-08T06:11:53.033Z,73.41
2022-11-08T06:14:21.515Z,73.41
2022-11-08T06:16:49.873Z,73.60
2022-11-08T06:19:18.307Z,73.49
2022-11-08T06:21:48.037Z,73.63
2022-11-08T06:24:17.418Z,73.26
2022-11-08T06:26:46.108Z,73.20
2022-11-08T06:29:14.599Z,73.12
2022-11-08T06:31:43.442Z,73.17
2022-11-08T06:34:11.917Z,73.02
2022-11-08T06:36:40.267Z,73.12
2022-11-08T06:39:10.120Z,72.98
2022-11-08T06:41:38.637Z,72.94
2022-11-08T06:44:07.253Z,72.97
2022-11-08T06:46:35.653Z,72.81
2022-11-08T06:49:04.012Z,72.84
2022-11-08T06:51:32.381Z,72.78
2022-11-08T06:54:04.380Z,72.85
2022-11-08T06:56:36.733Z,72.72
2022-11-08T06:59:05.112Z,72.68
2022-11-08T07:01:33.505Z,72.65
2022-11-08T07:04:02.003Z,72.66
2022-11-08T07:06:31.956Z,72.66
2022-11-08T07:09:00.359Z,72.71
2022-11-08T07:11:28.743Z,72.53
2022-11-08T07:13:58.438Z,72.34
2022-11-08T07:16:27.021Z,72.25
2022-11-08T07:18:55.755Z,72.16
2022-11-08T07:21:24.829Z,72.25
2022-11-08T07:23:53.252Z,71.71
2022-11-08T07:26:21.831Z,71.89
2022-11-08T07:28:50.260Z,71.76
2022-11-08T07:31:20.054Z,71.75
2022-11-08T07:33:48.707Z,71.58
2022-11-08T07:36:17.255Z,71.40
2022-11-08T07:38:45.587Z,71.58
2022-11-08T07:41:13.918Z,71.28
2022-11-08T07:43:42.218Z,71.42
2022-11-08T07:46:10.533Z,71.19
2022-11-08T07:48:40.281Z,71.39
2022-11-08T07:51:08.721Z,71.05
2022-11-08T07:53:37.089Z,71.31
2022-11-08T07:56:05.901Z,71.21
2022-11-08T07:58:34.506Z,71.19
2022-11-08T08:01:03.365Z,70.61
2022-11-08T08:03:32.127Z,70.45
2022-11-08T08:06:01.934Z,70.67
2022-11-08T08:08:31.155Z,70.30
2022-11-08T08:11:00.580Z,69.82
2022-11-08T08:13:32.433Z,69.48
2022-11-08T08:16:01.524Z,70.05
2022-11-08T08:18:30.488Z,69.65
2022-11-08T08:20:59.174Z,69.49
2022-11-08T08:23:29.414Z,69.14
2022-11-08T08:25:57.865Z,69.42
2022-11-08T08:28:26.236Z,69.26
2022-11-08T08:30:54.578Z,68.93
2022-11-08T08:33:28.320Z,68.88
2022-11-08T08:35:57.957Z,68.76
2022-11-08T08:38:30.185Z,68.38
2022-11-08T08:40:59.029Z,68.66
2022-11-08T08:43:28.559Z,69.02
2022-11-08T08:46:00.875Z,68.42
2022-11-08T08:48:29.511Z,68.38
2022-11-08T08:50:58.042Z,68.10
2022-11-08T08:53:26.595Z,67.57
2022-11-08T08:55:56.611Z,67.94
2022-11-08T08:58:25.222Z,67.99
2022-11-08T09:03:42.109Z,67.23
2022-11-08T09:06:10.989Z,67.61
2022-11-08T09:08:39.373Z,67.55
2022-11-08T09:11:09.049Z,67.02
2022-11-08T09:13:37.423Z,67.47
2022-11-08T09:16:07.961Z,67.42
2022-11-08T09:18:36.474Z,66.96
2022-11-08T09:21:05.039Z,67.20
2022-11-08T09:23:33.446Z,66.83
2022-11-08T09:26:04.135Z,66.91
2022-11-08T09:28:35.526Z,66.85
2022-11-08T09:31:05.625Z,67.11
2022-11-08T09:33:34.636Z,66.65
2022-11-08T09:36:05.957Z,66.50
2022-11-08T09:38:34.561Z,66.61
2022-11-08T09:41:19.070Z,66.70
2022-11-08T09:43:57.289Z,66.50
2022-11-08T09:46:37.899Z,66.50
2022-11-08T09:49:07.503Z,66.18
2022-11-08T09:51:36.873Z,65.70
2022-11-08T09:54:18.471Z,65.79
2022-11-08T09:56:48.795Z,65.77
2022-11-08T09:59:32.813Z,65.65
2022-11-08T10:02:01.249Z,65.70
2022-11-08T10:04:33.131Z,65.57
2022-11-08T10:07:20.586Z,65.79
2022-11-08T10:10:04.498Z,65.28
2022-11-08T10:12:46.316Z,65.04
2022-11-08T10:15:26.207Z,64.34
2022-11-08T10:18:13.285Z,63.97
2022-11-08T10:20:55.189Z,64.11
2022-11-08T10:23:36.769Z,63.66
2022-11-08T10:26:12.361Z,63.77
2022-11-08T10:28:47.458Z,63.41
2022-11-08T10:31:19.103Z,63.41
2022-11-08T10:33:52.022Z,63.13
2022-11-08T10:36:27.083Z,63.38
2022-11-08T10:39:03.086Z,63.27
2022-11-08T10:41:39.406Z,63.27
2022-11-08T10:44:12.768Z,63.17
2022-11-08T10:46:44.962Z,63.22
2022-11-08T10:49:17.583Z,63.39
2022-11-08T10:51:46.677Z,63.40
2022-11-08T10:54:43.552Z,62.71
2022-11-08T10:57:13.824Z,63.37
2022-11-08T10:59:42.653Z,63.08
2022-11-08T11:02:29.176Z,62.63
2022-11-08T11:05:23.783Z,62.63
2022-11-08T11:08:14.195Z,62.58
2022-11-08T11:10:45.462Z,62.33
2022-11-08T11:13:16.303Z,61.71
2022-11-08T11:15:51.015Z,61.22
2022-11-08T11:18:34.652Z,60.67
2022-11-08T11:21:07.293Z,60.79
2022-11-08T11:23:43.358Z,60.53
2022-11-08T11:26:25.297Z,60.42
2022-11-08T11:29:06.630Z,60.47
2022-11-08T11:31:36.449Z,60.38
2022-11-08T11:34:36.968Z,59.88
2022-11-08T11:37:17.841Z,60.06
2022-11-08T11:39:53.089Z,59.95
2022-11-08T11:45:20.544Z,59.50
2022-11-08T11:47:53.642Z,59.57
2022-11-08T11:50:29.555Z,59.33
2022-11-08T11:52:59.125Z,59.08
2022-11-08T11:55:34.416Z,58.29
2022-11-08T11:58:12.748Z,57.70
2022-11-08T12:00:48.104Z,57.72
2022-11-08T12:03:43.836Z,57.30
2022-11-08T12:06:40.133Z,56.93
2022-11-08T12:09:25.194Z,57.31
2022-11-08T12:12:06.395Z,57.35
2022-11-08T12:14:46.207Z,57.28
2022-11-08T12:17:42.882Z,56.66
2022-11-08T12:20:28.845Z,56.33
2022-11-08T12:23:27.967Z,56.40
2022-11-08T12:26:06.001Z,55.96
2022-11-08T12:28:50.924Z,55.67
2022-11-08T12:31:27.969Z,55.39
2022-11-08T12:34:14.296Z,55.03
2022-11-08T12:36:52.881Z,54.83
2022-11-08T12:39:32.400Z,54.97
2022-11-08T12:42:15.576Z,54.56
2022-11-08T12:45:27.010Z,54.14
2022-11-08T12:48:02.095Z,54.66
2022-11-08T12:50:39.174Z,53.84
2022-11-08T12:53:40.519Z,52.79
2022-11-08T12:56:15.508Z,53.24
2022-11-08T12:58:47.281Z,53.35
2022-11-08T13:01:18.196Z,53.15
2022-11-08T13:04:34.500Z,52.47
2022-11-08T13:07:27.533Z,52.93
2022-11-08T13:10:12.631Z,52.99
2022-11-08T13:13:27.790Z,52.32
2022-11-08T13:16:18.262Z,52.21
2022-11-08T13:18:49.277Z,52.78
2022-11-08T13:22:19.564Z,52.04
2022-11-08T13:24:48.954Z,52.89
2022-11-08T13:27:33.806Z,52.42
2022-11-08T13:30:23.293Z,53.07
2022-11-08T13:33:00.098Z,53.32
2022-11-08T13:35:34.924Z,53.62
2022-11-08T13:38:18.064Z,53.77
2022-11-08T13:41:17.605Z,54.27
2022-11-08T13:43:46.769Z,54.96
2022-11-08T13:46:47.235Z,55.04
2022-11-08T13:49:19.328Z,55.44
2022-11-08T13:51:48.174Z,55.82
2022-11-08T13:54:52.881Z,55.86
2022-11-08T13:57:42.302Z,56.42
2022-11-08T14:00:33.370Z,56.43
2022-11-08T14:03:03.004Z,56.44
2022-11-08T14:05:42.520Z,56.88
2022-11-08T14:08:23.883Z,57.27
2022-11-08T14:11:31.686Z,57.31
2022-11-08T14:14:48.743Z,57.88
2022-11-08T14:17:44.791Z,57.85
2022-11-08T14:20:31.191Z,58.27
2022-11-08T14:23:13.388Z,58.88
2022-11-08T14:25:42.294Z,58.79
2022-11-08T14:28:24.017Z,58.76
2022-11-08T14:30:52.766Z,58.68
2022-11-08T14:33:23.273Z,58.89
2022-11-08T14:35:57.999Z,58.89
2022-11-08T14:38:29.328Z,59.30
2022-11-08T14:41:01.043Z,59.29
2022-11-08T14:43:30.364Z,59.76
2022-11-08T14:45:59.070Z,59.70
2022-11-08T14:48:30.956Z,59.93
2022-11-08T14:51:00.458Z,60.23
2022-11-08T14:53:32.688Z,60.12
2022-11-08T14:56:12.200Z,60.10
2022-11-08T14:58:40.670Z,60.11
2022-11-08T15:01:19.384Z,60.37
2022-11-08T15:03:53.455Z,60.54
2022-11-08T15:06:22.709Z,61.00
2022-11-08T15:08:55.103Z,61.53
2022-11-08T15:11:29.895Z,61.81
2022-11-08T15:14:02.064Z,61.58
2022-11-08T15:16:40.262Z,61.61
2022-11-08T15:19:40.138Z,62.22
2022-11-08T15:22:25.393Z,62.32
2022-11-08T15:25:03.039Z,62.41
2022-11-08T15:27:31.347Z,62.25
2022-11-08T15:30:26.949Z,62.64
2022-11-08T15:32:55.520Z,62.72
2022-11-08T15:35:28.481Z,62.86
2022-11-08T15:38:01.391Z,63.15
2022-11-08T15:40:35.772Z,63.27
2022-11-08T15:43:05.114Z,63.17
2022-11-08T15:45:35.777Z,63.02
2022-11-08T15:48:20.885Z,63.11
2022-11-08T15:50:49.615Z,63.12
2022-11-08T15:53:18.205Z,63.16
2022-11-08T15:55:52.329Z,63.50
2022-11-08T15:58:26.713Z,63.50
2022-11-08T16:00:56.633Z,63.70
2022-11-08T16:03:25.625Z,63.79
2022-11-08T16:05:54.025Z,64.12
2022-11-08T16:08:23.287Z,64.46
2022-11-08T16:10:54.790Z,64.81
2022-11-08T16:13:28.355Z,64.76
2022-11-08T16:15:57.895Z,65.19
2022-11-08T16:18:26.312Z,65.51
2022-11-08T16:20:54.994Z,65.83
2022-11-08T16:23:23.525Z,66.02
2022-11-08T16:25:55.916Z,66.26
2022-11-08T16:28:28.417Z,66.70
2022-11-08T16:30:57.374Z,66.77
2022-11-08T16:33:28.101Z,67.20
2022-11-08T16:35:58.882Z,67.42
2022-11-08T16:38:30.321Z,67.21
2022-11-08T16:41:00.110Z,67.06
2022-11-08T16:43:28.671Z,66.71
2022-11-08T16:46:05.626Z,66.61
2022-11-08T16:48:36.512Z,66.56
2022-11-08T16:51:06.931Z,66.08
2022-11-08T16:53:37.533Z,66.29
2022-11-08T16:56:07.310Z,66.32
2022-11-08T16:58:38.556Z,66.02
2022-11-08T17:01:10.726Z,65.78
2022-11-08T17:03:39.714Z,65.73
2022-11-08T17:06:08.720Z,65.70
2022-11-08T17:08:37.858Z,65.49
2022-11-08T17:11:14.533Z,65.49
2022-11-08T17:13:43.321Z,65.57
2022-11-08T17:16:13.338Z,65.90
2022-11-08T17:18:48.577Z,65.53
2022-11-08T17:21:43.786Z,65.63
2022-11-08T17:24:09.171Z,64.85
2022-11-08T17:26:38.896Z,64.76
2022-11-08T17:29:08.206Z,64.92
2022-11-08T17:31:36.602Z,64.93
2022-11-08T17:34:04.915Z,64.82
2022-11-08T17:36:33.392Z,64.72
2022-11-08T17:39:01.694Z,64.89
2022-11-08T17:41:31.342Z,65.14
2022-11-08T17:44:01.075Z,64.85
2022-11-08T17:46:29.454Z,65.12
2022-11-08T17:48:57.854Z,65.48
2022-11-08T17:51:26.197Z,64.87
2022-11-08T17:53:54.575Z,64.81
2022-11-08T17:56:22.930Z,65.19
2022-11-08T17:58:51.268Z,65.00
2022-11-08T18:01:21.063Z,64.93
2022-11-08T18:03:49.569Z,64.78
2022-11-08T18:06:17.935Z,65.06
2022-11-08T18:08:46.554Z,65.10
2022-11-08T18:11:15.174Z,65.07
2022-11-08T18:13:43.877Z,65.51
2022-11-08T18:16:14.684Z,65.29
2022-11-08T18:18:45.509Z,65.28
2022-11-08T18:21:14.457Z,65.27
2022-11-08T18:23:44.429Z,65.27
2022-11-08T18:26:14.473Z,64.90
2022-11-08T18:28:43.989Z,64.96
2022-11-08T18:31:14.157Z,65.52
2022-11-08T18:33:44.874Z,65.57
2022-11-08T18:36:15.509Z,65.81
2022-11-08T18:38:45.770Z,65.50
2022-11-08T18:41:16.250Z,65.45
2022-11-08T18:43:45.245Z,65.64
2022-11-08T18:46:16.590Z,65.04
2022-11-08T18:48:46.781Z,65.38
2022-11-08T18:51:17.073Z,65.12
2022-11-08T18:53:46.101Z,64.84
2022-11-08T18:56:15.018Z,65.41
2022-11-08T18:58:44.602Z,65.39
2022-11-08T19:01:13.274Z,64.94
2022-11-08T19:03:42.079Z,65.41
2022-11-08T19:06:11.798Z,65.17
2022-11-08T19:08:40.227Z,65.50
2022-11-08T19:11:10.737Z,65.41
2022-11-08T19:13:40.728Z,65.19
2022-11-08T19:16:13.060Z,65.57
2022-11-08T19:18:42.590Z,65.19
2022-11-08T19:21:15.529Z,65.01
2022-11-08T19:23:44.074Z,65.40
2022-11-08T19:26:14.569Z,64.98
2022-11-08T19:28:45.473Z,65.00
2022-11-08T19:31:15.147Z,65.15
2022-11-08T19:33:43.516Z,65.30
2022-11-08T19:36:17.035Z,64.78
2022-11-08T19:38:46.310Z,64.88
2022-11-08T19:41:16.481Z,64.93
2022-11-08T19:43:45.218Z,65.15
2022-11-08T19:46:15.386Z,65.11
2022-11-08T19:48:45.338Z,65.11
2022-11-08T19:51:17.331Z,64.79
2022-11-08T19:53:46.223Z,64.67
2022-11-08T19:56:17.589Z,65.01
2022-11-08T19:58:46.541Z,64.75
2022-11-08T20:01:17.744Z,64.96
2022-11-08T20:03:46.890Z,65.00
2022-11-08T20:06:19.733Z,64.72
2022-11-08T20:08:49.550Z,65.12
2022-11-08T20:11:21.758Z,64.63
2022-11-08T20:14:08.137Z,65.16
2022-11-08T20:16:57.526Z,64.58
2022-11-08T20:19:26.098Z,64.80
2022-11-08T20:21:57.536Z,64.67
2022-11-08T20:24:25.894Z,64.78
2022-11-08T20:26:55.220Z,64.33
2022-11-08T20:29:23.646Z,64.78
2022-11-08T20:31:52.926Z,64.50
2022-11-08T20:34:21.456Z,64.37
2022-11-08T20:36:49.845Z,64.73
2022-11-08T20:39:19.653Z,64.65
2022-11-08T20:41:48.455Z,64.48
2022-11-08T20:44:16.805Z,64.87
2022-11-08T20:46:45.210Z,64.43
2022-11-08T20:49:13.577Z,64.53
2022-11-08T20:51:41.961Z,64.83
2022-11-08T20:54:11.754Z,64.86
2022-11-08T20:56:41.827Z,64.21
2022-11-08T20:59:11.079Z,64.30
2022-11-08T21:01:39.539Z,64.74
2022-11-08T21:04:08.666Z,64.57
2022-11-08T21:06:37.498Z,64.09
2022-11-08T21:11:56.365Z,64.62
2022-11-08T21:14:25.529Z,64.54
2022-11-08T21:19:42.358Z,63.86
2022-11-08T21:22:16.611Z,63.87
2022-11-08T21:24:46.374Z,64.37
2022-11-08T21:27:17.185Z,63.88
2022-11-08T21:29:45.573Z,63.81
2022-11-08T21:32:14.001Z,63.92
2022-11-08T21:34:45.812Z,64.42
2022-11-08T21:37:15.502Z,64.13
2022-11-08T21:39:44.054Z,63.71
2022-11-08T21:42:12.424Z,63.72
2022-11-08T21:44:42.138Z,63.48
2022-11-08T21:47:10.870Z,63.96
2022-11-08T21:49:39.278Z,64.05
2022-11-08T21:52:07.947Z,63.82
2022-11-08T21:54:36.388Z,63.59
2022-11-08T21:57:05.051Z,64.00
2022-11-08T21:59:33.461Z,64.04
2022-11-08T22:02:03.189Z,64.18
2022-11-08T22:04:31.743Z,63.55
2022-11-08T22:07:00.231Z,63.89
2022-11-08T22:09:28.671Z,63.83
2022-11-08T22:11:57.013Z,64.17
2022-11-08T22:14:25.359Z,63.95
2022-11-08T22:16:53.693Z,63.88
2022-11-08T22:19:25.356Z,64.26
2022-11-08T22:21:54.024Z,63.91
2022-11-08T22:24:22.330Z,64.05
2022-11-08T22:26:52.933Z,64.08
2022-11-08T22:29:21.304Z,63.48
2022-11-08T22:31:49.767Z,63.54
2022-11-08T22:34:18.157Z,64.07
2022-11-08T22:36:48.240Z,63.59
2022-11-08T22:39:18.190Z,63.77
2022-11-08T22:41:48.125Z,63.38
2022-11-08T22:44:18.149Z,63.78
2022-11-08T22:46:48.136Z,64.09
2022-11-08T22:49:16.815Z,63.39
2022-11-08T22:51:47.146Z,63.42
2022-11-08T22:54:15.553Z,63.76
2022-11-08T22:56:44.025Z,63.40
2022-11-08T22:59:12.826Z,63.37
2022-11-08T23:01:41.179Z,63.66
2022-11-08T23:04:11.327Z,63.53
2022-11-08T23:06:40.584Z,63.78
2022-11-08T23:09:10.849Z,63.63
2022-11-08T23:11:53.260Z,63.33
2022-11-08T23:14:39.218Z,63.65
2022-11-08T23:17:08.364Z,63.59
2022-11-08T23:19:54.451Z,63.24
2022-11-08T23:22:40.948Z,64.13
2022-11-08T23:25:10.872Z,63.44
2022-11-08T23:27:56.582Z,63.87
2022-11-08T23:30:42.606Z,63.46
2022-11-08T23:33:10.994Z,63.57
2022-11-08T23:35:59.326Z,63.92
2022-11-08T23:38:27.698Z,63.59
2022-11-08T23:41:17.273Z,63.36
2022-11-08T23:44:03.315Z,63.88
2022-11-08T23:46:31.685Z,63.88
2022-11-08T23:49:00.127Z,63.83
2022-11-08T23:51:28.557Z,63.45
2022-11-08T23:53:56.937Z,63.79
2022-11-08T23:56:29.059Z,63.26
2022-11-08T23:58:59.089Z,63.28
